createdAt,value
2018-07-04T00:01:22.583Z,2.20
2018-07-04T00:03:55.641Z,2.80
2018-07-04T00:06:28.542Z,3.30
2018-07-04T00:09:01.495Z,2.10
2018-07-04T00:11:34.447Z,2.67
2018-07-04T00:14:07.458Z,2.70
2018-07-04T00:16:40.478Z,2.80
2018-07-04T00:19:13.568Z,2.57
2018-07-04T00:21:46.583Z,3.00
2018-07-04T00:24:19.628Z,2.50
2018-07-04T00:26:52.794Z,2.60
2018-07-04T00:29:25.883Z,2.97
2018-07-04T00:31:58.803Z,2.70
2018-07-04T00:34:31.860Z,3.00
2018-07-04T00:37:04.757Z,2.90
2018-07-04T00:39:37.671Z,2.67
2018-07-04T00:42:10.675Z,2.60
2018-07-04T00:44:43.571Z,3.30
2018-07-04T00:47:16.527Z,2.90
2018-07-04T00:49:49.462Z,3.17
2018-07-04T00:52:22.282Z,3.00
2018-07-04T00:54:55.226Z,2.90
2018-07-04T00:57:28.331Z,3.00
2018-07-04T01:00:01.299Z,2.47
2018-07-04T01:02:34.138Z,3.43
2018-07-04T01:05:07.382Z,4.40
2018-07-04T01:07:40.315Z,4.03
2018-07-04T01:10:13.347Z,4.30
2018-07-04T01:12:46.131Z,4.00
2018-07-04T01:15:19.155Z,4.33
2018-07-04T01:17:52.160Z,3.90
2018-07-04T01:20:25.251Z,4.17
2018-07-04T01:22:58.391Z,3.90
2018-07-04T01:25:31.320Z,4.70
2018-07-04T01:28:04.234Z,3.50
2018-07-04T01:30:37.152Z,3.93
2018-07-04T01:33:10.136Z,3.70
2018-07-04T01:35:43.231Z,3.80
2018-07-04T01:38:16.288Z,4.13
2018-07-04T01:40:49.322Z,3.40
2018-07-04T01:43:22.292Z,3.97
2018-07-04T01:45:55.155Z,3.67
2018-07-04T01:48:28.156Z,3.97
2018-07-04T01:51:01.132Z,3.50
2018-07-04T01:53:34.104Z,4.60
2018-07-04T01:56:07.103Z,3.90
2018-07-04T01:58:40.008Z,3.67
2018-07-04T02:01:13.118Z,3.93
2018-07-04T02:03:46.411Z,3.03
2018-07-04T02:06:19.254Z,3.53
2018-07-04T02:08:52.450Z,3.83
2018-07-04T02:11:25.523Z,3.10
2018-07-04T02:13:58.542Z,4.30
2018-07-04T02:16:31.487Z,3.93
2018-07-04T02:19:04.524Z,4.30
2018-07-04T02:21:37.677Z,3.70
2018-07-04T02:24:10.475Z,3.70
2018-07-04T02:26:43.459Z,4.10
2018-07-04T02:29:16.356Z,3.43
2018-07-04T02:31:49.563Z,3.63
2018-07-04T02:34:24.672Z,3.80
2018-07-04T02:36:57.651Z,4.10
2018-07-04T02:39:30.757Z,4.33
2018-07-04T02:42:03.761Z,3.37
2018-07-04T02:44:36.955Z,3.53
2018-07-04T02:47:15.451Z,4.30
2018-07-04T02:49:48.339Z,4.10
2018-07-04T02:52:21.299Z,3.50
2018-07-04T02:54:55.126Z,4.30
2018-07-04T02:57:28.075Z,4.80
2018-07-04T03:00:01.238Z,4.53
2018-07-04T03:02:34.184Z,4.20
2018-07-04T03:05:07.151Z,4.30
2018-07-04T03:07:40.151Z,4.10
2018-07-04T03:10:13.153Z,4.20
2018-07-04T03:12:46.224Z,5.00
2018-07-04T03:15:19.277Z,4.90
2018-07-04T03:17:52.363Z,4.70
2018-07-04T03:20:25.362Z,4.00
2018-07-04T03:22:58.368Z,3.97
2018-07-04T03:25:31.128Z,4.40
2018-07-04T03:28:04.240Z,4.50
2018-07-04T03:30:37.220Z,4.30
2018-07-04T03:33:10.315Z,4.30
2018-07-04T03:35:43.523Z,4.80
2018-07-04T03:38:16.387Z,4.40
2018-07-04T03:40:49.262Z,4.93
2018-07-04T03:43:22.256Z,4.97
2018-07-04T03:45:55.274Z,4.60
2018-07-04T03:48:28.295Z,5.57
2018-07-04T03:51:01.336Z,5.03
2018-07-04T03:53:34.408Z,5.30
2018-07-04T03:56:07.629Z,5.63
2018-07-04T03:58:40.644Z,5.17
2018-07-04T04:01:13.676Z,6.07
2018-07-04T04:03:46.656Z,5.73
2018-07-04T04:06:19.561Z,5.40
2018-07-04T04:08:52.615Z,6.50
2018-07-04T04:11:25.628Z,5.30
2018-07-04T04:13:58.520Z,5.77
2018-07-04T04:16:31.394Z,6.23
2018-07-04T04:19:04.551Z,7.30
2018-07-04T04:21:37.667Z,6.20
2018-07-04T04:24:10.684Z,5.70
2018-07-04T04:26:43.696Z,5.90
2018-07-04T04:29:16.740Z,5.33
2018-07-04T04:31:49.663Z,5.50
2018-07-04T04:34:22.764Z,6.50
2018-07-04T04:36:55.819Z,5.57
2018-07-04T04:39:28.835Z,5.77
2018-07-04T04:42:01.964Z,5.70
2018-07-04T04:44:34.859Z,5.23
2018-07-04T04:47:07.825Z,6.20
2018-07-04T04:49:40.829Z,6.27
2018-07-04T04:52:13.820Z,6.27
2018-07-04T04:54:46.958Z,5.57
2018-07-04T04:57:19.883Z,5.80
2018-07-04T04:59:52.880Z,5.60
2018-07-04T05:02:25.748Z,5.87
2018-07-04T05:04:58.589Z,5.30
2018-07-04T05:07:31.556Z,5.27
2018-07-04T05:10:04.592Z,6.17
2018-07-04T05:12:37.682Z,5.80
2018-07-04T05:15:10.589Z,5.63
2018-07-04T05:17:43.604Z,5.30
2018-07-04T05:20:16.663Z,6.70
2018-07-04T05:22:49.584Z,5.77
2018-07-04T05:25:22.691Z,6.50
2018-07-04T05:27:55.658Z,6.00
2018-07-04T05:30:28.699Z,5.50
2018-07-04T05:33:01.737Z,6.20
2018-07-04T05:35:34.674Z,5.70
2018-07-04T05:38:07.647Z,6.40
2018-07-04T05:40:40.551Z,6.70
2018-07-04T05:43:14.459Z,5.80
2018-07-04T05:45:47.523Z,5.93
2018-07-04T05:48:20.536Z,5.67
2018-07-04T05:50:53.619Z,6.37
2018-07-04T05:53:26.719Z,6.30
2018-07-04T05:55:59.808Z,5.20
2018-07-04T05:58:32.675Z,5.33
2018-07-04T06:01:05.485Z,4.80
2018-07-04T06:03:38.452Z,4.80
2018-07-04T06:06:11.526Z,4.20
2018-07-04T06:08:44.532Z,4.90
2018-07-04T06:11:17.651Z,5.47
2018-07-04T06:13:50.748Z,4.73
2018-07-04T06:16:23.734Z,5.20
2018-07-04T06:18:56.818Z,5.10
2018-07-04T06:21:29.855Z,4.07
2018-07-04T06:24:03.068Z,4.40
2018-07-04T06:26:36.028Z,3.67
2018-07-04T06:29:09.103Z,3.20
2018-07-04T06:31:42.103Z,2.70
2018-07-04T06:34:15.155Z,3.23
2018-07-04T06:36:48.194Z,3.30
2018-07-04T06:39:15.059Z,3.13
2018-07-04T06:41:41.819Z,3.83
2018-07-04T06:44:08.710Z,3.50
2018-07-04T06:46:35.527Z,3.43
2018-07-04T06:49:02.344Z,3.63
2018-07-04T06:51:30.155Z,3.60
2018-07-04T06:53:56.980Z,3.43
2018-07-04T06:56:23.745Z,3.00
2018-07-04T06:58:50.472Z,3.40
2018-07-04T07:01:17.243Z,3.37
2018-07-04T07:03:50.091Z,2.60
2018-07-04T07:06:23.308Z,3.40
2018-07-04T07:08:56.407Z,3.50
2018-07-04T07:11:29.248Z,3.13
2018-07-04T07:14:02.164Z,2.60
2018-07-04T07:16:35.156Z,2.90
2018-07-04T07:19:08.128Z,3.10
2018-07-04T07:21:41.069Z,3.20
2018-07-04T07:24:14.101Z,2.77
2018-07-04T07:26:47.100Z,2.73
2018-07-04T07:29:19.983Z,3.10
2018-07-04T07:31:53.084Z,3.07
2018-07-04T07:34:26.312Z,2.63
2018-07-04T07:36:59.425Z,3.00
2018-07-04T07:39:33.611Z,3.50
2018-07-04T07:42:07.168Z,2.97
2018-07-04T07:44:40.179Z,2.70
2018-07-04T07:47:13.223Z,2.53
2018-07-04T07:49:46.195Z,3.47
2018-07-04T07:52:19.301Z,2.80
2018-07-04T07:54:52.167Z,3.40
2018-07-04T07:57:25.379Z,2.67
2018-07-04T07:59:58.439Z,2.87
2018-07-04T08:02:31.590Z,2.70
2018-07-04T08:05:04.540Z,2.60
2018-07-04T08:07:37.480Z,2.73
2018-07-04T08:10:10.416Z,2.87
2018-07-04T08:12:43.441Z,2.60
2018-07-04T08:15:16.376Z,2.53
2018-07-04T08:17:49.283Z,2.50
2018-07-04T08:20:22.443Z,2.30
2018-07-04T08:22:55.279Z,2.50
2018-07-04T08:25:28.328Z,2.57
2018-07-04T08:28:01.227Z,2.80
2018-07-04T08:30:34.319Z,2.30
2018-07-04T08:33:07.293Z,2.63
2018-07-04T08:35:40.315Z,3.00
2018-07-04T08:38:13.359Z,2.03
2018-07-04T08:40:46.277Z,2.67
2018-07-04T08:43:19.232Z,2.50
2018-07-04T08:45:52.437Z,2.90
2018-07-04T08:48:25.320Z,3.03
2018-07-04T08:50:58.391Z,3.27
2018-07-04T08:53:31.566Z,2.30
2018-07-04T08:56:04.768Z,3.93
2018-07-04T08:58:37.829Z,2.70
2018-07-04T09:01:10.884Z,3.47
2018-07-04T09:03:43.851Z,2.77
2018-07-04T09:06:16.912Z,3.20
2018-07-04T09:08:49.930Z,3.40
2018-07-04T09:11:23.099Z,2.90
2018-07-04T09:13:56.012Z,3.33
2018-07-04T09:16:29.118Z,3.30
2018-07-04T09:19:02.183Z,3.40
2018-07-04T09:21:35.324Z,3.73
2018-07-04T09:24:08.328Z,3.33
2018-07-04T09:26:41.552Z,2.93
2018-07-04T09:29:14.435Z,3.53
2018-07-04T09:31:47.511Z,3.37
2018-07-04T09:34:20.486Z,3.13
2018-07-04T09:36:53.591Z,3.80
2018-07-04T09:39:26.484Z,2.67
2018-07-04T09:41:59.362Z,3.00
2018-07-04T09:44:32.440Z,3.20
2018-07-04T09:47:05.539Z,3.40
2018-07-04T09:49:38.630Z,3.87
2018-07-04T09:52:11.661Z,3.20
2018-07-04T09:54:44.699Z,2.87
2018-07-04T09:57:17.594Z,3.47
2018-07-04T09:59:50.553Z,3.70
2018-07-04T10:02:23.612Z,3.13
2018-07-04T10:04:56.515Z,3.17
2018-07-04T10:07:29.390Z,2.70
2018-07-04T10:10:02.519Z,2.50
2018-07-04T10:12:35.429Z,2.97
2018-07-04T10:15:08.374Z,3.20
2018-07-04T10:17:41.483Z,3.53
2018-07-04T10:20:14.351Z,3.83
2018-07-04T10:22:47.480Z,3.40
2018-07-04T10:25:20.410Z,3.53
2018-07-04T10:27:53.426Z,3.23
2018-07-04T10:30:26.383Z,3.10
2018-07-04T10:32:59.414Z,3.17
2018-07-04T10:35:32.482Z,3.17
2018-07-04T10:38:05.449Z,3.20
2018-07-04T10:40:38.464Z,3.00
2018-07-04T10:43:11.492Z,3.10
2018-07-04T10:45:44.695Z,3.20
2018-07-04T10:48:17.567Z,3.03
2018-07-04T10:50:50.407Z,4.00
2018-07-04T10:53:23.402Z,3.73
2018-07-04T10:55:56.523Z,2.80
2018-07-04T10:58:29.563Z,3.20
2018-07-04T11:01:02.579Z,3.00
2018-07-04T11:03:35.620Z,3.00
2018-07-04T11:06:08.615Z,3.53
2018-07-04T11:08:41.631Z,3.90
2018-07-04T11:11:14.508Z,3.50
2018-07-04T11:13:47.299Z,3.50
2018-07-04T11:16:20.586Z,3.77
2018-07-04T11:18:53.330Z,4.60
2018-07-04T11:21:26.348Z,5.10
2018-07-04T11:23:59.508Z,4.60
2018-07-04T11:26:32.403Z,4.67
2018-07-04T11:29:05.288Z,3.33
2018-07-04T11:31:38.392Z,5.50
2018-07-04T11:34:11.328Z,5.60
2018-07-04T11:36:44.286Z,6.05
2018-07-04T11:39:17.448Z,5.40
2018-07-04T11:41:50.395Z,5.87
2018-07-04T11:44:23.315Z,5.77
2018-07-04T11:46:50.133Z,5.87
2018-07-04T11:49:17.004Z,5.10
2018-07-04T11:51:43.780Z,5.73
2018-07-04T11:54:10.635Z,6.37
2018-07-04T11:56:37.501Z,7.43
2018-07-04T11:59:04.379Z,10.07
2018-07-04T12:01:31.238Z,6.50
2018-07-04T12:04:04.376Z,5.40
2018-07-04T12:06:37.411Z,4.67
2018-07-04T12:09:04.221Z,3.90
2018-07-04T12:11:31.047Z,4.47
2018-07-04T12:13:57.790Z,5.40
2018-07-04T12:16:24.547Z,4.70
2018-07-04T12:18:51.335Z,5.33
2018-07-04T12:21:18.099Z,5.77
2018-07-04T12:23:44.852Z,5.77
2018-07-04T12:26:11.640Z,6.23
2018-07-04T12:28:38.363Z,5.20
2018-07-04T12:31:05.172Z,6.07
2018-07-04T12:33:31.943Z,5.80
2018-07-04T12:35:58.716Z,5.63
2018-07-04T12:38:25.480Z,4.83
2018-07-04T12:40:52.251Z,3.97
2018-07-04T12:43:19.081Z,2.93
2018-07-04T12:45:45.815Z,2.53
2018-07-04T12:48:12.648Z,2.90
2018-07-04T12:50:39.535Z,2.57
2018-07-04T12:53:06.326Z,3.10
2018-07-04T12:55:40.596Z,2.90
2018-07-04T12:58:13.558Z,2.77
2018-07-04T13:00:46.540Z,2.97
2018-07-04T13:03:20.044Z,2.90
2018-07-04T13:05:52.794Z,3.30
2018-07-04T13:08:25.683Z,3.37
2018-07-04T13:10:58.523Z,2.93
2018-07-04T13:13:31.463Z,2.90
2018-07-04T13:16:04.667Z,2.60
2018-07-04T13:18:37.687Z,3.13
2018-07-04T13:21:10.663Z,3.10
2018-07-04T13:23:43.556Z,3.33
2018-07-04T13:26:16.523Z,4.00
2018-07-04T13:28:49.566Z,3.27
2018-07-04T13:31:22.686Z,3.47
2018-07-04T13:33:55.712Z,4.27
2018-07-04T13:36:28.759Z,4.37
2018-07-04T13:39:01.932Z,4.03
2018-07-04T13:41:34.939Z,4.23
2018-07-04T13:44:08.183Z,3.83
2018-07-04T13:46:41.336Z,3.13
2018-07-04T13:49:14.340Z,4.70
2018-07-04T13:51:47.275Z,3.80
2018-07-04T13:54:20.496Z,4.10
2018-07-04T13:56:53.550Z,4.73
2018-07-04T13:59:26.611Z,5.10
2018-07-04T14:01:59.619Z,5.07
2018-07-04T14:04:32.773Z,4.63
2018-07-04T14:07:06.107Z,4.70
2018-07-04T14:09:39.037Z,4.90
2018-07-04T14:12:12.108Z,4.30
2018-07-04T14:14:45.306Z,4.87
2018-07-04T14:17:18.173Z,5.17
2018-07-04T14:19:51.080Z,5.30
2018-07-04T14:22:24.152Z,4.37
2018-07-04T14:24:57.119Z,4.97
2018-07-04T14:27:30.038Z,4.60
2018-07-04T14:30:03.099Z,5.73
2018-07-04T14:32:36.054Z,5.40
2018-07-04T14:35:09.068Z,5.07
2018-07-04T14:37:42.136Z,5.80
2018-07-04T14:40:15.247Z,4.93
2018-07-04T14:42:48.075Z,5.63
2018-07-04T14:45:21.004Z,5.90
2018-07-04T14:47:53.981Z,4.90
2018-07-04T14:50:27.000Z,6.43
2018-07-04T14:52:59.903Z,6.00
2018-07-04T14:55:33.071Z,5.63
2018-07-04T14:58:06.276Z,8.90
2018-07-04T15:00:39.067Z,7.13
2018-07-04T15:03:12.045Z,8.40
2018-07-04T15:05:45.147Z,6.57
2018-07-04T15:08:18.427Z,7.10
2018-07-04T15:10:51.395Z,6.80
2018-07-04T15:13:24.612Z,7.37
2018-07-04T15:15:57.537Z,6.50
2018-07-04T15:18:30.491Z,6.93
2018-07-04T15:21:03.562Z,7.60
2018-07-04T15:23:36.548Z,5.93
2018-07-04T15:26:09.515Z,6.03
2018-07-04T15:28:42.607Z,5.27
2018-07-04T15:31:15.720Z,6.67
2018-07-04T15:33:48.780Z,6.23
2018-07-04T15:36:22.093Z,5.00
2018-07-04T15:38:55.608Z,6.70
2018-07-04T15:41:28.579Z,6.70
2018-07-04T15:44:01.555Z,7.20
2018-07-04T15:46:34.423Z,6.80
2018-07-04T15:49:10.330Z,5.60
2018-07-04T15:51:43.588Z,6.70
2018-07-04T15:54:16.503Z,7.33
2018-07-04T15:56:49.647Z,7.53
2018-07-04T15:59:23.165Z,7.17
2018-07-04T16:01:56.202Z,6.90
2018-07-04T16:04:29.141Z,7.23
2018-07-04T16:07:02.614Z,6.67
2018-07-04T16:09:35.421Z,6.80
2018-07-04T16:12:08.377Z,7.37
2018-07-04T16:14:41.386Z,6.40
2018-07-04T16:17:14.243Z,6.77
2018-07-04T16:19:47.562Z,6.43
2018-07-04T16:22:20.723Z,6.10
2018-07-04T16:24:53.754Z,6.63
2018-07-04T16:27:26.845Z,6.40
2018-07-04T16:29:59.843Z,7.03
2018-07-04T16:32:33.094Z,6.93
2018-07-04T16:35:06.087Z,5.73
2018-07-04T16:37:39.164Z,6.63
2018-07-04T16:40:12.135Z,6.87
2018-07-04T16:42:45.481Z,6.90
2018-07-04T16:45:18.472Z,6.30
2018-07-04T16:47:51.427Z,6.20
2018-07-04T16:50:24.399Z,6.40
2018-07-04T16:52:57.478Z,7.20
2018-07-04T16:55:30.477Z,6.93
2018-07-04T16:58:03.341Z,6.20
2018-07-04T17:00:36.275Z,5.83
2018-07-04T17:03:09.129Z,7.57
2018-07-04T17:05:42.066Z,6.80
2018-07-04T17:08:15.240Z,6.80
2018-07-04T17:10:48.312Z,6.70
2018-07-04T17:13:21.332Z,7.00
2018-07-04T17:15:54.391Z,6.50
2018-07-04T17:18:27.481Z,7.57
2018-07-04T17:21:00.488Z,5.93
2018-07-04T17:23:33.453Z,5.60
2018-07-04T17:26:06.439Z,5.80
2018-07-04T17:28:39.440Z,6.30
2018-07-04T17:31:12.303Z,7.27
2018-07-04T17:33:45.278Z,6.07
2018-07-04T17:36:18.288Z,6.70
2018-07-04T17:38:51.324Z,6.47
2018-07-04T17:41:24.352Z,6.77
2018-07-04T17:43:57.447Z,7.00
2018-07-04T17:46:30.576Z,7.20
2018-07-04T17:49:03.419Z,6.63
2018-07-04T17:51:36.518Z,6.73
2018-07-04T17:54:09.476Z,7.03
2018-07-04T17:56:42.286Z,6.70
2018-07-04T17:59:15.478Z,6.77
2018-07-04T18:01:48.413Z,6.70
2018-07-04T18:18:40.109Z,5.83
2018-07-04T18:21:18.651Z,5.70
2018-07-04T18:23:51.989Z,7.23
2018-07-04T18:26:24.936Z,6.50
2018-07-04T18:28:57.968Z,5.67
2018-07-04T18:31:30.939Z,6.30
2018-07-04T18:34:03.900Z,6.00
2018-07-04T18:36:36.819Z,6.90
2018-07-04T18:39:09.914Z,6.00
2018-07-04T18:41:42.901Z,8.90
2018-07-04T18:44:15.888Z,6.37
2018-07-04T18:46:49.951Z,6.47
2018-07-04T18:49:23.076Z,6.17
2018-07-04T18:51:56.147Z,6.50
2018-07-04T18:54:29.011Z,5.90
2018-07-04T18:57:01.993Z,6.43
2018-07-04T18:59:35.221Z,6.40
2018-07-04T19:02:08.089Z,6.80
2018-07-04T19:04:41.245Z,6.07
2018-07-04T19:07:14.281Z,6.70
2018-07-04T19:09:47.286Z,6.10
2018-07-04T19:12:20.357Z,6.53
2018-07-04T19:14:53.377Z,5.70
2018-07-04T19:17:26.456Z,5.70
2018-07-04T19:19:59.610Z,6.43
2018-07-04T19:22:32.730Z,6.30
2018-07-04T19:25:05.698Z,6.50
2018-07-04T19:27:38.766Z,5.60
2018-07-04T19:30:11.868Z,5.73
2018-07-04T19:32:44.947Z,6.20
2018-07-04T19:35:17.904Z,5.97
2018-07-04T19:37:50.827Z,5.70
2018-07-04T19:40:23.811Z,6.40
2018-07-04T19:42:57.102Z,6.13
2018-07-04T19:45:30.094Z,6.20
2018-07-04T19:48:03.121Z,7.30
2018-07-04T19:50:36.163Z,6.90
2018-07-04T19:53:09.318Z,6.30
2018-07-04T19:55:42.347Z,6.50
2018-07-04T19:58:15.513Z,6.20
2018-07-04T20:00:48.387Z,7.13
2018-07-04T20:03:21.341Z,7.00
2018-07-04T20:05:54.481Z,7.10
2018-07-04T20:08:27.513Z,7.17
2018-07-04T20:11:00.564Z,7.30
2018-07-04T20:13:33.608Z,7.20
2018-07-04T20:16:06.657Z,7.10
2018-07-04T20:18:39.643Z,7.03
2018-07-04T20:21:12.651Z,7.27
2018-07-04T20:23:45.553Z,7.03
2018-07-04T20:26:18.591Z,6.93
2018-07-04T20:28:51.649Z,7.00
2018-07-04T20:31:24.969Z,7.30
2018-07-04T20:33:57.789Z,6.50
2018-07-04T20:36:30.868Z,7.20
2018-07-04T20:39:04.806Z,7.60
2018-07-04T20:41:37.878Z,7.27
2018-07-04T20:44:10.867Z,7.83
2018-07-04T20:46:43.787Z,6.90
2018-07-04T20:49:16.949Z,6.37
2018-07-04T20:51:49.878Z,7.43
2018-07-04T20:54:22.774Z,8.03
2018-07-04T20:56:55.749Z,7.80
2018-07-04T20:59:28.886Z,7.00
2018-07-04T21:02:03.264Z,7.13
2018-07-04T21:04:36.177Z,6.70
2018-07-04T21:07:09.252Z,8.07
2018-07-04T21:09:42.364Z,7.30
2018-07-04T21:12:15.584Z,7.90
2018-07-04T21:14:48.880Z,7.60
2018-07-04T21:17:21.954Z,7.37
2018-07-04T21:19:55.090Z,7.60
2018-07-04T21:22:28.060Z,7.47
2018-07-04T21:25:01.161Z,7.97
2018-07-04T21:27:34.133Z,7.63
2018-07-04T21:30:07.245Z,7.43
2018-07-04T21:32:40.330Z,8.60
2018-07-04T21:35:13.425Z,7.00
2018-07-04T21:37:46.649Z,7.23
2018-07-04T21:40:19.581Z,8.50
2018-07-04T21:42:52.661Z,6.27
2018-07-04T21:45:25.627Z,7.67
2018-07-04T21:47:58.755Z,7.80
2018-07-04T21:50:31.838Z,8.10
2018-07-04T21:53:05.018Z,8.20
2018-07-04T21:55:38.197Z,8.10
2018-07-04T21:58:11.142Z,6.83
2018-07-04T22:00:44.152Z,7.77
2018-07-04T22:03:17.095Z,7.83
2018-07-04T22:05:50.066Z,7.10
2018-07-04T22:08:23.407Z,7.60
2018-07-04T22:10:56.329Z,8.10
2018-07-04T22:13:29.414Z,7.97
2018-07-04T22:16:02.315Z,8.90
2018-07-04T22:18:35.165Z,9.33
2018-07-04T22:21:08.099Z,8.10
2018-07-04T22:23:41.260Z,8.47
2018-07-04T22:26:14.120Z,8.50
2018-07-04T22:28:47.160Z,8.30
2018-07-04T22:31:20.205Z,7.50
2018-07-04T22:33:53.042Z,8.43
2018-07-04T22:36:25.955Z,8.97
2018-07-04T22:38:59.043Z,9.80
2018-07-04T22:41:31.935Z,9.30
2018-07-04T22:44:04.965Z,8.53
2018-07-04T22:46:37.892Z,8.97
2018-07-04T22:49:10.973Z,8.40
2018-07-04T22:51:44.022Z,9.23
2018-07-04T22:54:17.058Z,7.80
2018-07-04T22:56:50.063Z,7.40
2018-07-04T22:59:23.057Z,8.17
2018-07-04T23:01:56.155Z,8.33
2018-07-04T23:04:29.128Z,8.53
2018-07-04T23:07:02.291Z,8.50
2018-07-04T23:09:35.231Z,8.20
2018-07-04T23:12:08.262Z,7.90
2018-07-04T23:14:41.284Z,7.60
2018-07-04T23:17:14.360Z,7.73
2018-07-04T23:19:47.446Z,6.77
2018-07-04T23:22:20.511Z,8.00
2018-07-04T23:24:53.402Z,7.17
2018-07-04T23:27:26.370Z,7.60
2018-07-04T23:29:59.412Z,6.53
2018-07-04T23:32:32.438Z,6.93
2018-07-04T23:35:05.487Z,6.63
2018-07-04T23:37:38.440Z,7.13
2018-07-04T23:40:11.436Z,7.43
2018-07-04T23:42:44.492Z,7.33
2018-07-04T23:45:17.323Z,6.30
2018-07-04T23:47:50.183Z,7.03
2018-07-04T23:50:23.353Z,6.40
2018-07-04T23:52:56.477Z,7.73
2018-07-04T23:55:29.444Z,7.57
2018-07-04T23:58:02.441Z,6.70
